sensor_id;sensor_type;location;lat;lon;timestamp;temperature;humidity
16267;DHT22;8241;48.786;9.250;2022-12-07T00:00:15;5.20;99.90
16267;DHT22;8241;48.786;9.250;2022-12-07T00:02:43;5.20;99.90
16267;DHT22;8241;48.786;9.250;2022-12-07T00:05:10;5.20;99.90
16267;DHT22;8241;48.786;9.250;2022-12-07T00:07:37;5.20;99.90
16267;DHT22;8241;48.786;9.250;2022-12-07T00:10:06;5.10;99.90
16267;DHT22;8241;48.786;9.250;2022-12-07T00:12:33;5.10;99.90
16267;DHT22;8241;48.786;9.250;2022-12-07T00:15:06;5.10;99.90
16267;DHT22;8241;48.786;9.250;2022-12-07T00:17:33;5.20;99.90
16267;DHT22;8241;48.786;9.250;2022-12-07T00:20:00;5.20;99.90
16267;DHT22;8241;48.786;9.250;2022-12-07T00:22:27;5.20;99.90
16267;DHT22;8241;48.786;9.250;2022-12-07T00:25:11;5.20;99.90
16267;DHT22;8241;48.786;9.250;2022-12-07T00:27:38;5.20;99.90
16267;DHT22;8241;48.786;9.250;2022-12-07T00:30:08;5.20;99.90
16267;DHT22;8241;48.786;9.250;2022-12-07T00:32:39;5.20;99.90
16267;DHT22;8241;48.786;9.250;2022-12-07T00:35:06;5.20;99.90
16267;DHT22;8241;48.786;9.250;2022-12-07T00:37:33;5.20;99.90
16267;DHT22;8241;48.786;9.250;2022-12-07T00:40:16;5.20;99.90
16267;DHT22;8241;48.786;9.250;2022-12-07T00:42:42;5.20;99.90
16267;DHT22;8241;48.786;9.250;2022-12-07T00:45:10;5.20;99.90
16267;DHT22;8241;48.786;9.250;2022-12-07T00:47:37;5.10;99.90
16267;DHT22;8241;48.786;9.250;2022-12-07T00:50:05;5.20;99.90
16267;DHT22;8241;48.786;9.250;2022-12-07T00:52:46;5.10;99.90
16267;DHT22;8241;48.786;9.250;2022-12-07T00:55:22;5.10;99.90
16267;DHT22;8241;48.786;9.250;2022-12-07T00:57:49;5.20;99.90
16267;DHT22;8241;48.786;9.250;2022-12-07T01:00:16;5.10;99.90
16267;DHT22;8241;48.786;9.250;2022-12-07T01:02:43;5.20;99.90
16267;DHT22;8241;48.786;9.250;2022-12-07T01:05:10;5.20;99.90
16267;DHT22;8241;48.786;9.250;2022-12-07T01:07:37;5.20;99.90
16267;DHT22;8241;48.786;9.250;2022-12-07T01:10:05;5.10;99.90
16267;DHT22;8241;48.786;9.250;2022-12-07T01:12:34;5.10;99.90
16267;DHT22;8241;48.786;9.250;2022-12-07T01:15:00;5.10;99.90
16267;DHT22;8241;48.786;9.250;2022-12-07T01:17:28;5.20;99.90
16267;DHT22;8241;48.786;9.250;2022-12-07T01:19:58;5.20;99.90
16267;DHT22;8241;48.786;9.250;2022-12-07T01:22:25;5.20;99.90
16267;DHT22;8241;48.786;9.250;2022-12-07T01:28:41;5.10;99.90
16267;DHT22;8241;48.786;9.250;2022-12-07T01:31:09;5.10;99.90
16267;DHT22;8241;48.786;9.250;2022-12-07T01:33:38;5.10;99.90
16267;DHT22;8241;48.786;9.250;2022-12-07T01:36:07;5.10;99.90
16267;DHT22;8241;48.786;9.250;2022-12-07T01:38:34;5.10;99.90
16267;DHT22;8241;48.786;9.250;2022-12-07T01:41:02;5.10;99.90
16267;DHT22;8241;48.786;9.250;2022-12-07T01:43:30;5.10;99.90
16267;DHT22;8241;48.786;9.250;2022-12-07T01:46:09;5.10;99.90
16267;DHT22;8241;48.786;9.250;2022-12-07T01:48:39;5.10;99.90
16267;DHT22;8241;48.786;9.250;2022-12-07T01:51:10;5.10;99.90
16267;DHT22;8241;48.786;9.250;2022-12-07T01:53:40;5.10;99.90
16267;DHT22;8241;48.786;9.250;2022-12-07T01:56:09;5.10;99.90
16267;DHT22;8241;48.786;9.250;2022-12-07T01:58:37;5.10;99.90
16267;DHT22;8241;48.786;9.250;2022-12-07T02:01:04;5.10;99.90
16267;DHT22;8241;48.786;9.250;2022-12-07T02:03:36;5.10;99.90
16267;DHT22;8241;48.786;9.250;2022-12-07T02:06:04;5.10;99.90
16267;DHT22;8241;48.786;9.250;2022-12-07T02:08:32;5.00;99.90
16267;DHT22;8241;48.786;9.250;2022-12-07T02:11:00;5.10;99.90
16267;DHT22;8241;48.786;9.250;2022-12-07T02:13:30;5.10;99.90
16267;DHT22;8241;48.786;9.250;2022-12-07T02:16:11;5.10;99.90
16267;DHT22;8241;48.786;9.250;2022-12-07T02:18:59;5.10;99.90
16267;DHT22;8241;48.786;9.250;2022-12-07T02:21:37;5.10;99.90
16267;DHT22;8241;48.786;9.250;2022-12-07T02:27:21;5.00;99.90
16267;DHT22;8241;48.786;9.250;2022-12-07T02:29:58;5.10;99.90
16267;DHT22;8241;48.786;9.250;2022-12-07T02:32:35;5.10;99.90
16267;DHT22;8241;48.786;9.250;2022-12-07T02:35:06;5.20;99.90
16267;DHT22;8241;48.786;9.250;2022-12-07T02:37:39;5.10;99.90
16267;DHT22;8241;48.786;9.250;2022-12-07T02:40:11;5.10;99.90
16267;DHT22;8241;48.786;9.250;2022-12-07T02:42:44;5.10;99.90
16267;DHT22;8241;48.786;9.250;2022-12-07T02:45:17;5.10;99.90
16267;DHT22;8241;48.786;9.250;2022-12-07T02:47:50;5.00;99.90
16267;DHT22;8241;48.786;9.250;2022-12-07T02:50:21;5.00;99.90
16267;DHT22;8241;48.786;9.250;2022-12-07T02:52:48;5.10;99.90
16267;DHT22;8241;48.786;9.250;2022-12-07T02:55:19;5.20;99.90
16267;DHT22;8241;48.786;9.250;2022-12-07T02:58:06;5.20;99.90
16267;DHT22;8241;48.786;9.250;2022-12-07T03:00:44;5.10;99.90
16267;DHT22;8241;48.786;9.250;2022-12-07T03:03:15;5.10;99.90
16267;DHT22;8241;48.786;9.250;2022-12-07T03:06:02;5.10;99.90
16267;DHT22;8241;48.786;9.250;2022-12-07T03:08:41;5.10;99.90
16267;DHT22;8241;48.786;9.250;2022-12-07T03:11:32;5.10;99.90
16267;DHT22;8241;48.786;9.250;2022-12-07T03:14:04;5.00;99.90
16267;DHT22;8241;48.786;9.250;2022-12-07T03:16:41;5.00;99.90
16267;DHT22;8241;48.786;9.250;2022-12-07T03:19:29;5.10;99.90
16267;DHT22;8241;48.786;9.250;2022-12-07T03:22:02;5.00;99.90
16267;DHT22;8241;48.786;9.250;2022-12-07T03:24:38;5.10;99.90
16267;DHT22;8241;48.786;9.250;2022-12-07T03:27:30;5.10;99.90
16267;DHT22;8241;48.786;9.250;2022-12-07T03:30:14;5.00;99.90
16267;DHT22;8241;48.786;9.250;2022-12-07T03:33:08;5.10;99.90
16267;DHT22;8241;48.786;9.250;2022-12-07T03:36:01;5.10;99.90
16267;DHT22;8241;48.786;9.250;2022-12-07T03:38:38;5.10;99.90
16267;DHT22;8241;48.786;9.250;2022-12-07T03:41:08;5.10;99.90
16267;DHT22;8241;48.786;9.250;2022-12-07T03:43:47;5.20;99.90
16267;DHT22;8241;48.786;9.250;2022-12-07T03:46:20;5.20;99.90
16267;DHT22;8241;48.786;9.250;2022-12-07T03:48:56;5.20;99.90
16267;DHT22;8241;48.786;9.250;2022-12-07T03:51:28;5.20;99.90
16267;DHT22;8241;48.786;9.250;2022-12-07T03:54:07;5.10;99.90
16267;DHT22;8241;48.786;9.250;2022-12-07T03:56:44;5.20;99.90
16267;DHT22;8241;48.786;9.250;2022-12-07T03:59:13;5.10;99.90
16267;DHT22;8241;48.786;9.250;2022-12-07T04:01:44;5.10;99.90
16267;DHT22;8241;48.786;9.250;2022-12-07T04:04:13;5.10;99.90
16267;DHT22;8241;48.786;9.250;2022-12-07T04:09:55;5.10;99.90
16267;DHT22;8241;48.786;9.250;2022-12-07T04:12:43;5.20;99.90
16267;DHT22;8241;48.786;9.250;2022-12-07T04:15:10;5.10;99.90
16267;DHT22;8241;48.786;9.250;2022-12-07T04:20:32;5.40;99.90
16267;DHT22;8241;48.786;9.250;2022-12-07T04:22:59;5.50;99.90
16267;DHT22;8241;48.786;9.250;2022-12-07T04:25:37;5.30;99.90
16267;DHT22;8241;48.786;9.250;2022-12-07T04:28:04;5.20;99.90
16267;DHT22;8241;48.786;9.250;2022-12-07T04:30:32;5.00;99.90
16267;DHT22;8241;48.786;9.250;2022-12-07T04:32:59;5.10;99.90
16267;DHT22;8241;48.786;9.250;2022-12-07T04:35:25;5.10;99.90
16267;DHT22;8241;48.786;9.250;2022-12-07T04:37:54;5.10;99.90
16267;DHT22;8241;48.786;9.250;2022-12-07T04:40:21;5.00;99.90
16267;DHT22;8241;48.786;9.250;2022-12-07T04:42:47;4.90;99.90
16267;DHT22;8241;48.786;9.250;2022-12-07T04:45:14;4.90;99.90
16267;DHT22;8241;48.786;9.250;2022-12-07T04:47:41;4.90;99.90
16267;DHT22;8241;48.786;9.250;2022-12-07T04:50:09;4.70;99.90
16267;DHT22;8241;48.786;9.250;2022-12-07T04:52:36;4.50;99.90
16267;DHT22;8241;48.786;9.250;2022-12-07T04:55:05;4.30;99.90
16267;DHT22;8241;48.786;9.250;2022-12-07T04:57:32;4.20;99.90
16267;DHT22;8241;48.786;9.250;2022-12-07T04:59:59;4.30;99.90
16267;DHT22;8241;48.786;9.250;2022-12-07T05:02:26;4.30;99.90
16267;DHT22;8241;48.786;9.250;2022-12-07T05:04:53;4.30;99.90
16267;DHT22;8241;48.786;9.250;2022-12-07T05:07:27;4.20;99.90
16267;DHT22;8241;48.786;9.250;2022-12-07T05:09:54;4.20;99.90
16267;DHT22;8241;48.786;9.250;2022-12-07T05:12:22;4.40;99.90
16267;DHT22;8241;48.786;9.250;2022-12-07T05:14:51;4.50;99.90
16267;DHT22;8241;48.786;9.250;2022-12-07T05:17:19;4.60;99.90
16267;DHT22;8241;48.786;9.250;2022-12-07T05:19:57;4.70;99.90
16267;DHT22;8241;48.786;9.250;2022-12-07T05:22:24;4.70;99.90
16267;DHT22;8241;48.786;9.250;2022-12-07T05:24:53;4.60;99.90
16267;DHT22;8241;48.786;9.250;2022-12-07T05:27:20;4.60;99.90
16267;DHT22;8241;48.786;9.250;2022-12-07T05:30:09;4.50;99.90
16267;DHT22;8241;48.786;9.250;2022-12-07T05:32:37;4.40;99.90
16267;DHT22;8241;48.786;9.250;2022-12-07T05:35:04;4.40;99.90
16267;DHT22;8241;48.786;9.250;2022-12-07T05:37:31;4.40;99.90
16267;DHT22;8241;48.786;9.250;2022-12-07T05:43:24;4.60;99.90
16267;DHT22;8241;48.786;9.250;2022-12-07T05:45:52;4.40;99.90
16267;DHT22;8241;48.786;9.250;2022-12-07T05:48:19;4.30;99.90
16267;DHT22;8241;48.786;9.250;2022-12-07T05:50:47;4.30;99.90
16267;DHT22;8241;48.786;9.250;2022-12-07T05:53:14;4.20;99.90
16267;DHT22;8241;48.786;9.250;2022-12-07T05:55:41;4.20;99.90
16267;DHT22;8241;48.786;9.250;2022-12-07T05:58:08;4.20;99.90
16267;DHT22;8241;48.786;9.250;2022-12-07T06:00:55;4.10;99.90
16267;DHT22;8241;48.786;9.250;2022-12-07T06:03:48;4.40;99.90
16267;DHT22;8241;48.786;9.250;2022-12-07T06:06:28;4.60;99.90
16267;DHT22;8241;48.786;9.250;2022-12-07T06:08:58;4.60;99.90
16267;DHT22;8241;48.786;9.250;2022-12-07T06:11:37;4.50;99.90
16267;DHT22;8241;48.786;9.250;2022-12-07T06:17:47;4.70;99.90
16267;DHT22;8241;48.786;9.250;2022-12-07T06:20:32;4.60;99.90
16267;DHT22;8241;48.786;9.250;2022-12-07T06:22:59;4.40;99.90
16267;DHT22;8241;48.786;9.250;2022-12-07T06:25:46;4.30;99.90
16267;DHT22;8241;48.786;9.250;2022-12-07T06:28:13;4.20;99.90
16267;DHT22;8241;48.786;9.250;2022-12-07T06:30:39;4.20;99.90
16267;DHT22;8241;48.786;9.250;2022-12-07T06:33:09;4.10;99.90
16267;DHT22;8241;48.786;9.250;2022-12-07T06:35:36;4.10;99.90
16267;DHT22;8241;48.786;9.250;2022-12-07T06:38:03;4.10;99.90
16267;DHT22;8241;48.786;9.250;2022-12-07T06:40:31;4.10;99.90
16267;DHT22;8241;48.786;9.250;2022-12-07T06:42:59;4.20;99.90
16267;DHT22;8241;48.786;9.250;2022-12-07T06:45:27;4.30;99.90
16267;DHT22;8241;48.786;9.250;2022-12-07T06:48:11;4.20;99.90
16267;DHT22;8241;48.786;9.250;2022-12-07T06:50:44;4.40;99.90
16267;DHT22;8241;48.786;9.250;2022-12-07T06:56:29;4.60;99.90
16267;DHT22;8241;48.786;9.250;2022-12-07T06:59:18;4.40;99.90
16267;DHT22;8241;48.786;9.250;2022-12-07T07:01:57;4.50;99.90
16267;DHT22;8241;48.786;9.250;2022-12-07T07:04:34;4.40;99.90
16267;DHT22;8241;48.786;9.250;2022-12-07T07:07:01;4.40;99.90
16267;DHT22;8241;48.786;9.250;2022-12-07T07:09:29;4.70;99.90
16267;DHT22;8241;48.786;9.250;2022-12-07T07:12:04;4.70;99.90
16267;DHT22;8241;48.786;9.250;2022-12-07T07:14:31;4.40;99.90
16267;DHT22;8241;48.786;9.250;2022-12-07T07:17:02;4.30;99.90
16267;DHT22;8241;48.786;9.250;2022-12-07T07:19:31;4.30;99.90
16267;DHT22;8241;48.786;9.250;2022-12-07T07:21:59;4.20;99.90
16267;DHT22;8241;48.786;9.250;2022-12-07T07:24:34;4.20;99.90
16267;DHT22;8241;48.786;9.250;2022-12-07T07:27:06;4.10;99.90
16267;DHT22;8241;48.786;9.250;2022-12-07T07:29:33;4.10;99.90
16267;DHT22;8241;48.786;9.250;2022-12-07T07:32:00;4.00;99.90
16267;DHT22;8241;48.786;9.250;2022-12-07T07:34:31;3.90;99.90
16267;DHT22;8241;48.786;9.250;2022-12-07T07:37:08;3.90;99.90
16267;DHT22;8241;48.786;9.250;2022-12-07T07:39:39;4.10;99.90
16267;DHT22;8241;48.786;9.250;2022-12-07T07:42:28;4.20;99.90
16267;DHT22;8241;48.786;9.250;2022-12-07T07:45:14;4.10;99.90
16267;DHT22;8241;48.786;9.250;2022-12-07T07:47:41;4.10;99.90
16267;DHT22;8241;48.786;9.250;2022-12-07T07:50:09;4.30;99.90
16267;DHT22;8241;48.786;9.250;2022-12-07T07:52:40;4.30;99.90
16267;DHT22;8241;48.786;9.250;2022-12-07T07:55:09;4.30;99.90
16267;DHT22;8241;48.786;9.250;2022-12-07T07:57:36;4.20;99.90
16267;DHT22;8241;48.786;9.250;2022-12-07T08:00:08;4.20;99.90
16267;DHT22;8241;48.786;9.250;2022-12-07T08:02:53;4.20;99.90
16267;DHT22;8241;48.786;9.250;2022-12-07T08:05:26;4.10;99.90
16267;DHT22;8241;48.786;9.250;2022-12-07T08:07:54;4.20;99.90
16267;DHT22;8241;48.786;9.250;2022-12-07T08:10:25;4.40;99.90
16267;DHT22;8241;48.786;9.250;2022-12-07T08:12:58;4.60;99.90
16267;DHT22;8241;48.786;9.250;2022-12-07T08:15:39;4.40;99.90
16267;DHT22;8241;48.786;9.250;2022-12-07T08:18:07;4.40;99.90
16267;DHT22;8241;48.786;9.250;2022-12-07T08:20:35;4.40;99.90
16267;DHT22;8241;48.786;9.250;2022-12-07T08:23:05;4.40;99.90
16267;DHT22;8241;48.786;9.250;2022-12-07T08:25:46;4.40;99.90
16267;DHT22;8241;48.786;9.250;2022-12-07T08:28:13;4.40;99.90
16267;DHT22;8241;48.786;9.250;2022-12-07T08:30:40;4.60;99.90
16267;DHT22;8241;48.786;9.250;2022-12-07T08:33:07;4.80;99.90
16267;DHT22;8241;48.786;9.250;2022-12-07T08:35:40;4.80;99.90
16267;DHT22;8241;48.786;9.250;2022-12-07T08:38:16;4.70;99.90
16267;DHT22;8241;48.786;9.250;2022-12-07T08:40:59;4.60;99.90
16267;DHT22;8241;48.786;9.250;2022-12-07T08:43:34;4.50;99.90
16267;DHT22;8241;48.786;9.250;2022-12-07T08:46:08;4.50;99.90
16267;DHT22;8241;48.786;9.250;2022-12-07T08:48:38;4.50;99.90
16267;DHT22;8241;48.786;9.250;2022-12-07T08:51:07;4.80;99.90
16267;DHT22;8241;48.786;9.250;2022-12-07T08:53:43;4.70;99.90
16267;DHT22;8241;48.786;9.250;2022-12-07T08:56:12;4.70;99.90
16267;DHT22;8241;48.786;9.250;2022-12-07T08:58:39;4.70;99.90
16267;DHT22;8241;48.786;9.250;2022-12-07T09:01:23;4.70;99.90
16267;DHT22;8241;48.786;9.250;2022-12-07T09:03:50;4.60;99.90
16267;DHT22;8241;48.786;9.250;2022-12-07T09:06:18;4.60;99.90
16267;DHT22;8241;48.786;9.250;2022-12-07T09:08:50;4.70;99.90
16267;DHT22;8241;48.786;9.250;2022-12-07T09:11:17;4.80;99.90
16267;DHT22;8241;48.786;9.250;2022-12-07T09:13:44;4.90;99.90
16267;DHT22;8241;48.786;9.250;2022-12-07T09:16:12;4.90;99.90
16267;DHT22;8241;48.786;9.250;2022-12-07T09:18:46;4.80;99.90
16267;DHT22;8241;48.786;9.250;2022-12-07T09:21:13;4.80;99.90
16267;DHT22;8241;48.786;9.250;2022-12-07T09:23:41;4.90;99.90
16267;DHT22;8241;48.786;9.250;2022-12-07T09:26:10;4.90;99.90
16267;DHT22;8241;48.786;9.250;2022-12-07T09:28:37;4.90;99.90
16267;DHT22;8241;48.786;9.250;2022-12-07T09:31:04;4.80;99.90
16267;DHT22;8241;48.786;9.250;2022-12-07T09:33:31;4.90;99.90
16267;DHT22;8241;48.786;9.250;2022-12-07T09:35:58;4.90;99.90
16267;DHT22;8241;48.786;9.250;2022-12-07T09:38:26;4.90;99.90
16267;DHT22;8241;48.786;9.250;2022-12-07T09:40:55;5.20;99.90
16267;DHT22;8241;48.786;9.250;2022-12-07T09:43:25;5.30;99.90
16267;DHT22;8241;48.786;9.250;2022-12-07T09:45:54;5.20;99.90
16267;DHT22;8241;48.786;9.250;2022-12-07T09:48:25;5.20;99.90
16267;DHT22;8241;48.786;9.250;2022-12-07T09:54:13;5.30;99.90
16267;DHT22;8241;48.786;9.250;2022-12-07T09:56:48;5.40;99.90
16267;DHT22;8241;48.786;9.250;2022-12-07T09:59:27;5.50;99.90
16267;DHT22;8241;48.786;9.250;2022-12-07T10:01:54;5.60;99.90
16267;DHT22;8241;48.786;9.250;2022-12-07T10:04:25;5.50;99.90
16267;DHT22;8241;48.786;9.250;2022-12-07T10:06:53;5.50;99.90
16267;DHT22;8241;48.786;9.250;2022-12-07T10:09:25;5.70;99.90
16267;DHT22;8241;48.786;9.250;2022-12-07T10:15:08;5.60;99.90
16267;DHT22;8241;48.786;9.250;2022-12-07T10:17:49;5.60;99.90
16267;DHT22;8241;48.786;9.250;2022-12-07T10:20:20;5.60;99.90
16267;DHT22;8241;48.786;9.250;2022-12-07T10:23:02;5.80;99.90
16267;DHT22;8241;48.786;9.250;2022-12-07T10:25:32;5.80;99.90
16267;DHT22;8241;48.786;9.250;2022-12-07T10:28:01;5.80;99.90
16267;DHT22;8241;48.786;9.250;2022-12-07T10:30:32;5.80;99.90
16267;DHT22;8241;48.786;9.250;2022-12-07T10:32:59;5.80;99.90
16267;DHT22;8241;48.786;9.250;2022-12-07T10:35:28;5.90;99.90
16267;DHT22;8241;48.786;9.250;2022-12-07T10:37:56;5.80;99.90
16267;DHT22;8241;48.786;9.250;2022-12-07T10:40:32;5.80;99.90
16267;DHT22;8241;48.786;9.250;2022-12-07T10:46:18;5.90;99.90
16267;DHT22;8241;48.786;9.250;2022-12-07T10:48:57;5.80;99.90
16267;DHT22;8241;48.786;9.250;2022-12-07T10:51:32;5.80;99.90
16267;DHT22;8241;48.786;9.250;2022-12-07T10:54:20;5.90;99.90
16267;DHT22;8241;48.786;9.250;2022-12-07T10:57:01;5.90;99.90
16267;DHT22;8241;48.786;9.250;2022-12-07T11:00:04;5.90;99.90
16267;DHT22;8241;48.786;9.250;2022-12-07T11:05:47;5.90;99.90
16267;DHT22;8241;48.786;9.250;2022-12-07T11:08:31;5.90;99.90
16267;DHT22;8241;48.786;9.250;2022-12-07T11:11:15;5.90;99.90
16267;DHT22;8241;48.786;9.250;2022-12-07T11:13:59;5.90;99.90
16267;DHT22;8241;48.786;9.250;2022-12-07T11:16:38;5.90;99.90
16267;DHT22;8241;48.786;9.250;2022-12-07T11:19:25;5.90;99.90
16267;DHT22;8241;48.786;9.250;2022-12-07T11:22:02;5.80;99.90
16267;DHT22;8241;48.786;9.250;2022-12-07T11:24:35;5.80;99.90
16267;DHT22;8241;48.786;9.250;2022-12-07T11:27:17;5.90;99.90
16267;DHT22;8241;48.786;9.250;2022-12-07T11:30:03;5.90;99.90
16267;DHT22;8241;48.786;9.250;2022-12-07T11:32:57;5.90;99.90
16267;DHT22;8241;48.786;9.250;2022-12-07T11:35:38;5.80;99.90
16267;DHT22;8241;48.786;9.250;2022-12-07T11:38:11;5.90;99.90
16267;DHT22;8241;48.786;9.250;2022-12-07T11:40:48;5.90;99.90
16267;DHT22;8241;48.786;9.250;2022-12-07T11:43:21;5.90;99.90
16267;DHT22;8241;48.786;9.250;2022-12-07T11:45:54;5.90;99.90
16267;DHT22;8241;48.786;9.250;2022-12-07T11:48:30;5.80;99.90
16267;DHT22;8241;48.786;9.250;2022-12-07T11:51:01;5.90;99.90
16267;DHT22;8241;48.786;9.250;2022-12-07T11:53:33;5.80;99.90
16267;DHT22;8241;48.786;9.250;2022-12-07T11:56:29;5.90;99.90
16267;DHT22;8241;48.786;9.250;2022-12-07T11:59:00;5.80;99.90
16267;DHT22;8241;48.786;9.250;2022-12-07T12:01:38;5.90;99.90
16267;DHT22;8241;48.786;9.250;2022-12-07T12:04:16;5.80;99.90
16267;DHT22;8241;48.786;9.250;2022-12-07T12:06:49;5.80;99.90
16267;DHT22;8241;48.786;9.250;2022-12-07T12:09:19;5.80;99.90
16267;DHT22;8241;48.786;9.250;2022-12-07T12:12:17;5.80;99.90
16267;DHT22;8241;48.786;9.250;2022-12-07T12:14:56;5.80;99.90
16267;DHT22;8241;48.786;9.250;2022-12-07T12:17:59;5.80;99.90
16267;DHT22;8241;48.786;9.250;2022-12-07T12:20:31;5.70;99.90
16267;DHT22;8241;48.786;9.250;2022-12-07T12:23:05;5.80;99.90
16267;DHT22;8241;48.786;9.250;2022-12-07T12:25:39;5.80;99.90
16267;DHT22;8241;48.786;9.250;2022-12-07T12:28:40;5.70;99.90
16267;DHT22;8241;48.786;9.250;2022-12-07T12:31:11;5.70;99.90
16267;DHT22;8241;48.786;9.250;2022-12-07T12:33:46;5.70;99.90
16267;DHT22;8241;48.786;9.250;2022-12-07T12:36:43;5.70;99.90
16267;DHT22;8241;48.786;9.250;2022-12-07T12:39:13;5.70;99.90
16267;DHT22;8241;48.786;9.250;2022-12-07T12:41:53;5.70;99.90
16267;DHT22;8241;48.786;9.250;2022-12-07T12:47:58;5.70;99.90
16267;DHT22;8241;48.786;9.250;2022-12-07T12:50:28;5.70;99.90
16267;DHT22;8241;48.786;9.250;2022-12-07T12:53:01;5.70;99.90
16267;DHT22;8241;48.786;9.250;2022-12-07T12:58:43;5.70;99.90
16267;DHT22;8241;48.786;9.250;2022-12-07T13:01:44;5.80;99.90
16267;DHT22;8241;48.786;9.250;2022-12-07T13:04:34;5.80;99.90
16267;DHT22;8241;48.786;9.250;2022-12-07T13:07:06;5.70;99.90
16267;DHT22;8241;48.786;9.250;2022-12-07T13:13:37;5.80;99.90
16267;DHT22;8241;48.786;9.250;2022-12-07T13:20:00;5.80;99.90
16267;DHT22;8241;48.786;9.250;2022-12-07T13:22:51;5.80;99.90
16267;DHT22;8241;48.786;9.250;2022-12-07T13:31:37;5.80;99.90
16267;DHT22;8241;48.786;9.250;2022-12-07T13:34:30;5.80;99.90
16267;DHT22;8241;48.786;9.250;2022-12-07T13:37:10;5.90;99.90
16267;DHT22;8241;48.786;9.250;2022-12-07T13:39:49;5.90;99.90
16267;DHT22;8241;48.786;9.250;2022-12-07T13:42:24;5.90;99.90
16267;DHT22;8241;48.786;9.250;2022-12-07T13:45:00;5.80;99.90
16267;DHT22;8241;48.786;9.250;2022-12-07T13:47:43;5.70;99.90
16267;DHT22;8241;48.786;9.250;2022-12-07T13:50:25;5.80;99.90
16267;DHT22;8241;48.786;9.250;2022-12-07T13:52:55;5.70;99.90
16267;DHT22;8241;48.786;9.250;2022-12-07T13:55:31;5.70;99.90
16267;DHT22;8241;48.786;9.250;2022-12-07T13:57:59;5.70;99.90
16267;DHT22;8241;48.786;9.250;2022-12-07T14:00:28;5.80;99.90
16267;DHT22;8241;48.786;9.250;2022-12-07T14:03:18;5.80;99.90
16267;DHT22;8241;48.786;9.250;2022-12-07T14:06:18;5.70;99.90
16267;DHT22;8241;48.786;9.250;2022-12-07T14:09:22;5.70;99.90
16267;DHT22;8241;48.786;9.250;2022-12-07T14:11:55;5.60;99.90
16267;DHT22;8241;48.786;9.250;2022-12-07T14:14:31;5.70;99.90
16267;DHT22;8241;48.786;9.250;2022-12-07T14:17:08;5.70;99.90
16267;DHT22;8241;48.786;9.250;2022-12-07T14:26:15;5.80;99.90
16267;DHT22;8241;48.786;9.250;2022-12-07T14:32:20;5.90;99.90
16267;DHT22;8241;48.786;9.250;2022-12-07T14:38:07;5.90;99.90
16267;DHT22;8241;48.786;9.250;2022-12-07T14:40:34;5.90;99.90
16267;DHT22;8241;48.786;9.250;2022-12-07T14:43:09;5.90;99.90
16267;DHT22;8241;48.786;9.250;2022-12-07T14:45:37;6.00;99.90
16267;DHT22;8241;48.786;9.250;2022-12-07T14:48:08;5.90;99.90
16267;DHT22;8241;48.786;9.250;2022-12-07T14:50:44;5.90;99.90
16267;DHT22;8241;48.786;9.250;2022-12-07T14:53:36;5.90;99.90
16267;DHT22;8241;48.786;9.250;2022-12-07T14:56:11;5.80;99.90
16267;DHT22;8241;48.786;9.250;2022-12-07T14:58:45;5.80;99.90
16267;DHT22;8241;48.786;9.250;2022-12-07T15:01:14;5.70;99.90
16267;DHT22;8241;48.786;9.250;2022-12-07T15:03:41;5.70;99.90
16267;DHT22;8241;48.786;9.250;2022-12-07T15:06:13;5.70;99.90
16267;DHT22;8241;48.786;9.250;2022-12-07T15:08:50;5.70;99.90
16267;DHT22;8241;48.786;9.250;2022-12-07T15:11:37;5.70;99.90
16267;DHT22;8241;48.786;9.250;2022-12-07T15:14:05;5.70;99.90
16267;DHT22;8241;48.786;9.250;2022-12-07T15:16:38;5.70;99.90
16267;DHT22;8241;48.786;9.250;2022-12-07T15:19:12;5.70;99.90
16267;DHT22;8241;48.786;9.250;2022-12-07T15:21:39;5.60;99.90
16267;DHT22;8241;48.786;9.250;2022-12-07T15:24:33;5.60;99.90
16267;DHT22;8241;48.786;9.250;2022-12-07T15:27:00;5.60;99.90
16267;DHT22;8241;48.786;9.250;2022-12-07T15:29:28;5.60;99.90
16267;DHT22;8241;48.786;9.250;2022-12-07T15:31:55;5.60;99.90
16267;DHT22;8241;48.786;9.250;2022-12-07T15:34:41;5.60;99.90
16267;DHT22;8241;48.786;9.250;2022-12-07T15:37:08;5.60;99.90
16267;DHT22;8241;48.786;9.250;2022-12-07T15:39:36;5.60;99.90
16267;DHT22;8241;48.786;9.250;2022-12-07T15:42:04;5.60;99.90
16267;DHT22;8241;48.786;9.250;2022-12-07T15:44:50;5.60;99.90
16267;DHT22;8241;48.786;9.250;2022-12-07T15:47:36;5.60;99.90
16267;DHT22;8241;48.786;9.250;2022-12-07T15:50:07;5.60;99.90
16267;DHT22;8241;48.786;9.250;2022-12-07T15:52:34;5.60;99.90
16267;DHT22;8241;48.786;9.250;2022-12-07T15:55:01;5.50;99.90
16267;DHT22;8241;48.786;9.250;2022-12-07T15:57:38;5.60;99.90
16267;DHT22;8241;48.786;9.250;2022-12-07T16:00:09;5.60;99.90
16267;DHT22;8241;48.786;9.250;2022-12-07T16:02:49;5.50;99.90
16267;DHT22;8241;48.786;9.250;2022-12-07T16:05:15;5.50;99.90
16267;DHT22;8241;48.786;9.250;2022-12-07T16:07:53;5.50;99.90
16267;DHT22;8241;48.786;9.250;2022-12-07T16:13:32;5.40;99.90
16267;DHT22;8241;48.786;9.250;2022-12-07T16:16:03;5.40;99.90
16267;DHT22;8241;48.786;9.250;2022-12-07T16:18:30;5.40;99.90
16267;DHT22;8241;48.786;9.250;2022-12-07T16:20:57;5.40;99.90
16267;DHT22;8241;48.786;9.250;2022-12-07T16:23:24;5.30;99.90
16267;DHT22;8241;48.786;9.250;2022-12-07T16:25:51;5.40;99.90
16267;DHT22;8241;48.786;9.250;2022-12-07T16:28:18;5.40;99.90
16267;DHT22;8241;48.786;9.250;2022-12-07T16:30:45;5.40;99.90
16267;DHT22;8241;48.786;9.250;2022-12-07T16:33:13;5.30;99.90
16267;DHT22;8241;48.786;9.250;2022-12-07T16:35:50;5.40;99.90
16267;DHT22;8241;48.786;9.250;2022-12-07T16:38:26;5.40;99.90
16267;DHT22;8241;48.786;9.250;2022-12-07T16:40:54;5.30;99.90
16267;DHT22;8241;48.786;9.250;2022-12-07T16:43:26;5.30;99.90
16267;DHT22;8241;48.786;9.250;2022-12-07T16:45:53;5.40;99.90
16267;DHT22;8241;48.786;9.250;2022-12-07T16:48:37;5.30;99.90
16267;DHT22;8241;48.786;9.250;2022-12-07T16:51:39;5.30;99.90
16267;DHT22;8241;48.786;9.250;2022-12-07T16:57:11;5.30;99.90
16267;DHT22;8241;48.786;9.250;2022-12-07T16:59:39;5.30;99.90
16267;DHT22;8241;48.786;9.250;2022-12-07T17:05:00;5.20;99.90
16267;DHT22;8241;48.786;9.250;2022-12-07T17:07:27;5.20;99.90
16267;DHT22;8241;48.786;9.250;2022-12-07T17:09:54;5.10;99.90
16267;DHT22;8241;48.786;9.250;2022-12-07T17:22:00;5.00;99.90
16267;DHT22;8241;48.786;9.250;2022-12-07T17:24:40;5.10;99.90
16267;DHT22;8241;48.786;9.250;2022-12-07T17:27:08;5.00;99.90
16267;DHT22;8241;48.786;9.250;2022-12-07T17:29:49;5.10;99.90
16267;DHT22;8241;48.786;9.250;2022-12-07T17:32:16;5.20;99.90
16267;DHT22;8241;48.786;9.250;2022-12-07T17:34:42;5.30;99.90
16267;DHT22;8241;48.786;9.250;2022-12-07T17:37:26;5.30;99.90
16267;DHT22;8241;48.786;9.250;2022-12-07T17:40:02;5.30;99.90
16267;DHT22;8241;48.786;9.250;2022-12-07T17:42:34;5.30;99.90
16267;DHT22;8241;48.786;9.250;2022-12-07T17:45:06;5.30;99.90
16267;DHT22;8241;48.786;9.250;2022-12-07T17:47:33;5.30;99.90
16267;DHT22;8241;48.786;9.250;2022-12-07T17:50:06;5.20;99.90
16267;DHT22;8241;48.786;9.250;2022-12-07T18:02:05;5.00;99.90
16267;DHT22;8241;48.786;9.250;2022-12-07T18:11:36;5.10;99.90
16267;DHT22;8241;48.786;9.250;2022-12-07T18:16:56;5.10;99.90
16267;DHT22;8241;48.786;9.250;2022-12-07T18:26:01;5.10;99.90
16267;DHT22;8241;48.786;9.250;2022-12-07T18:28:34;5.10;99.90
16267;DHT22;8241;48.786;9.250;2022-12-07T18:33:49;5.20;99.90
16267;DHT22;8241;48.786;9.250;2022-12-07T18:36:16;5.10;99.90
16267;DHT22;8241;48.786;9.250;2022-12-07T18:38:45;5.10;99.90